createdAt,value
2023-04-11T00:01:55.195Z,99043.03
2023-04-11T00:04:59.882Z,99038.81
2023-04-11T00:08:04.681Z,99044.13
2023-04-11T00:11:08.836Z,99043.09
2023-04-11T00:14:13.223Z,99021.75
2023-04-11T00:17:18.821Z,99024.59
2023-04-11T00:20:23.603Z,99007.72
2023-04-11T00:23:28.253Z,98974.59
2023-04-11T00:26:33.120Z,98986.09
2023-04-11T00:29:37.690Z,98961.31
2023-04-11T00:32:42.131Z,98950.59
2023-04-11T00:35:46.796Z,98957.75
2023-04-11T00:38:50.952Z,98939.78
2023-04-11T00:41:54.932Z,98945.59
2023-04-11T00:44:58.820Z,99002.69
2023-04-11T00:48:03.460Z,98989.56
2023-04-11T00:51:09.109Z,99031.00
2023-04-11T00:54:14.101Z,99019.50
2023-04-11T00:57:19.237Z,98985.75
2023-04-11T01:00:24.106Z,98982.34
2023-04-11T01:03:28.926Z,98962.19
2023-04-11T01:06:34.446Z,98971.03
2023-04-11T01:09:47.347Z,98944.75
2023-04-11T01:12:52.836Z,98959.53
2023-04-11T01:15:57.271Z,98953.09
2023-04-11T01:19:02.036Z,98918.22
2023-04-11T01:22:06.611Z,98946.78
2023-04-11T01:25:11.476Z,98958.09
2023-04-11T01:28:16.433Z,98955.41
2023-04-11T01:31:21.724Z,98956.09
2023-04-11T01:34:29.123Z,98956.19
2023-04-11T01:37:34.440Z,98954.59
2023-04-11T01:40:40.250Z,98962.72
2023-04-11T01:43:45.400Z,98965.81
2023-04-11T01:46:49.808Z,98941.88
2023-04-11T01:49:54.528Z,98929.31
2023-04-11T01:52:58.557Z,98925.28
2023-04-11T01:56:02.894Z,98906.91
2023-04-11T01:59:07.196Z,98890.78
2023-04-11T02:02:11.269Z,98879.31
2023-04-11T02:05:15.732Z,98859.16
2023-04-11T02:08:20.132Z,98849.84
2023-04-11T02:11:24.892Z,98842.91
2023-04-11T02:14:39.810Z,98831.78
2023-04-11T02:17:47.193Z,98829.53
2023-04-11T02:20:51.072Z,98814.41
2023-04-11T02:23:55.436Z,98762.50
2023-04-11T02:26:59.960Z,98788.63
2023-04-11T02:30:06.797Z,98783.00
2023-04-11T02:33:10.541Z,98755.03
2023-04-11T02:36:15.285Z,98748.72
2023-04-11T02:39:25.030Z,98759.97
2023-04-11T02:42:29.530Z,98741.78
2023-04-11T02:45:33.728Z,98737.59
2023-04-11T02:48:38.253Z,98729.69
2023-04-11T02:51:42.240Z,98719.56
2023-04-11T02:54:46.984Z,98718.16
2023-04-11T02:57:51.535Z,98687.69
2023-04-11T03:00:57.731Z,98682.13
2023-04-11T03:04:02.303Z,98689.25
2023-04-11T03:07:27.913Z,98673.75
2023-04-11T03:10:34.181Z,98681.22
2023-04-11T03:13:40.190Z,98677.34
2023-04-11T03:16:44.141Z,98661.19
2023-04-11T03:19:49.187Z,98637.81
2023-04-11T03:22:53.846Z,98640.63
2023-04-11T03:25:59.259Z,98624.78
2023-04-11T03:29:05.016Z,98587.31
2023-04-11T03:32:17.916Z,98610.94
2023-04-11T03:35:22.427Z,98611.16
2023-04-11T03:38:28.207Z,98596.81
2023-04-11T03:41:32.503Z,98584.47
2023-04-11T03:44:36.608Z,98579.75
2023-04-11T03:47:41.440Z,98587.81
2023-04-11T03:50:47.005Z,98579.56
2023-04-11T03:53:55.164Z,98559.00
2023-04-11T03:57:07.292Z,98565.63
2023-04-11T04:00:12.984Z,98563.72
2023-04-11T04:03:20.320Z,98547.28
2023-04-11T04:06:25.539Z,98553.25
2023-04-11T04:09:30.851Z,98555.06
2023-04-11T04:12:35.641Z,98561.13
2023-04-11T04:15:55.361Z,98565.91
2023-04-11T04:19:04.002Z,98548.97
2023-04-11T04:22:14.053Z,98579.28
2023-04-11T04:25:25.928Z,98547.53
2023-04-11T04:28:31.923Z,98558.59
2023-04-11T04:31:39.149Z,98538.88
2023-04-11T04:34:50.068Z,98556.25
2023-04-11T04:38:07.054Z,98525.25
2023-04-11T04:41:23.750Z,98506.16
2023-04-11T04:44:36.229Z,98529.59
2023-04-11T04:47:50.463Z,98535.09
2023-04-11T04:50:55.147Z,98545.66
2023-04-11T04:54:00.504Z,98551.50
2023-04-11T04:57:05.249Z,98542.88
2023-04-11T05:00:12.429Z,98531.94
2023-04-11T05:03:21.811Z,98537.63
2023-04-11T05:06:35.043Z,98486.91
2023-04-11T05:09:40.203Z,98522.38
2023-04-11T05:12:50.265Z,98494.09
2023-04-11T05:15:55.198Z,98495.47
2023-04-11T05:19:02.592Z,98505.03
2023-04-11T05:22:09.890Z,98499.75
2023-04-11T05:25:19.955Z,98472.50
2023-04-11T05:28:25.005Z,98494.81
2023-04-11T05:31:31.727Z,98484.13
2023-04-11T05:34:58.792Z,98477.41
2023-04-11T05:38:23.113Z,98498.66
2023-04-11T05:41:28.012Z,98488.25
2023-04-11T05:44:32.364Z,98498.75
2023-04-11T05:47:36.666Z,98489.75
2023-04-11T05:50:40.969Z,98458.84
2023-04-11T05:53:45.773Z,98450.59
2023-04-11T05:56:50.499Z,98452.34
2023-04-11T05:59:55.038Z,98446.78
2023-04-11T06:03:03.749Z,98450.22
2023-04-11T06:06:08.680Z,98443.69
2023-04-11T06:09:13.229Z,98435.94
2023-04-11T06:12:17.604Z,98421.78
2023-04-11T06:15:23.986Z,98424.31
2023-04-11T06:18:28.451Z,98396.50
2023-04-11T06:21:33.142Z,98421.09
2023-04-11T06:24:39.605Z,98413.88
2023-04-11T06:27:44.328Z,98402.56
2023-04-11T06:30:51.539Z,98406.41
2023-04-11T06:33:56.804Z,98410.94
2023-04-11T06:37:01.855Z,98410.34
2023-04-11T06:40:09.336Z,98399.31
2023-04-11T06:43:13.442Z,98409.44
2023-04-11T06:46:18.184Z,98414.94
2023-04-11T06:49:22.744Z,98410.94
2023-04-11T06:52:28.264Z,98425.88
2023-04-11T06:55:32.876Z,98424.81
2023-04-11T06:58:37.699Z,98417.94
2023-04-11T07:01:42.363Z,98415.97
2023-04-11T07:04:47.134Z,98364.06
2023-04-11T07:07:51.638Z,98400.91
2023-04-11T07:10:56.092Z,98406.22
2023-04-11T07:14:01.946Z,98393.41
2023-04-11T07:17:06.048Z,98393.28
2023-04-11T07:20:10.960Z,98400.16
2023-04-11T07:23:15.560Z,98420.69
2023-04-11T07:26:20.087Z,98491.53
2023-04-11T07:29:24.065Z,98493.31
2023-04-11T07:32:28.530Z,98493.50
2023-04-11T07:35:35.408Z,98498.03
2023-04-11T07:38:39.655Z,98493.94
2023-04-11T07:41:43.677Z,98544.50
2023-04-11T07:44:47.585Z,98555.38
2023-04-11T07:47:51.715Z,98568.50
2023-04-11T07:50:56.248Z,98583.59
2023-04-11T07:54:01.014Z,98570.34
2023-04-11T07:57:05.505Z,98618.44
2023-04-11T08:00:11.826Z,98651.28
2023-04-11T08:03:17.572Z,98665.75
2023-04-11T08:06:22.505Z,98704.16
2023-04-11T08:09:28.614Z,98731.66
2023-04-11T08:12:34.167Z,98717.84
2023-04-11T08:15:39.584Z,98770.09
2023-04-11T08:18:46.480Z,98761.69
2023-04-11T08:21:50.451Z,98736.66
2023-04-11T08:24:57.440Z,98732.53
2023-04-11T08:28:02.217Z,98738.16
2023-04-11T08:31:07.881Z,98751.88
2023-04-11T08:34:12.581Z,98752.97
2023-04-11T08:37:16.851Z,98749.78
2023-04-11T08:40:21.175Z,98732.66
2023-04-11T08:43:26.973Z,98699.31
2023-04-11T08:46:34.666Z,98704.34
2023-04-11T08:49:38.563Z,98719.00
2023-04-11T08:52:46.619Z,98715.72
2023-04-11T08:55:52.848Z,98725.78
2023-04-11T08:58:57.308Z,98671.38
2023-04-11T09:02:12.220Z,98735.13
2023-04-11T09:05:31.072Z,98719.63
2023-04-11T09:08:40.455Z,98746.13
2023-04-11T09:11:57.052Z,98758.56
2023-04-11T09:15:22.168Z,98750.72
2023-04-11T09:18:39.676Z,98721.41
2023-04-11T09:21:53.143Z,98720.25
2023-04-11T09:25:04.512Z,98702.56
2023-04-11T09:28:11.636Z,98752.81
2023-04-11T09:31:16.642Z,98749.00
2023-04-11T09:34:28.598Z,98753.28
2023-04-11T09:37:47.567Z,98739.09
2023-04-11T09:40:52.278Z,98737.81
2023-04-11T09:43:57.395Z,98748.66
2023-04-11T09:47:02.188Z,98715.72
2023-04-11T09:50:08.068Z,98757.53
2023-04-11T09:53:14.478Z,98770.81
2023-04-11T09:56:18.997Z,98768.78
2023-04-11T09:59:23.942Z,98724.78
2023-04-11T10:02:27.876Z,98784.31
2023-04-11T10:05:32.788Z,98780.88
2023-04-11T10:08:38.783Z,98787.56
2023-04-11T10:11:46.992Z,98804.84
2023-04-11T10:14:51.830Z,98791.38
2023-04-11T10:18:13.317Z,98825.22
2023-04-11T10:21:37.349Z,98829.56
2023-04-11T10:24:41.803Z,98834.00
2023-04-11T10:27:54.412Z,98819.34
2023-04-11T10:31:18.126Z,98815.50
2023-04-11T10:34:22.424Z,98823.66
2023-04-11T10:37:35.162Z,98822.13
2023-04-11T10:41:19.398Z,98850.38
2023-04-11T10:44:25.594Z,98870.25
2023-04-11T10:47:30.353Z,98865.44
2023-04-11T10:50:42.793Z,98885.41
2023-04-11T10:53:48.352Z,98865.56
2023-04-11T10:56:56.383Z,98878.00
2023-04-11T11:00:16.628Z,98857.69
2023-04-11T11:03:27.568Z,98908.78
2023-04-11T11:06:46.068Z,98910.91
2023-04-11T11:09:54.978Z,98892.03
2023-04-11T11:12:59.325Z,98919.00
2023-04-11T11:16:04.356Z,98922.66
2023-04-11T11:19:10.794Z,98922.69
2023-04-11T11:22:19.289Z,98933.94
2023-04-11T11:25:26.304Z,98929.72
2023-04-11T11:28:30.846Z,98895.19
2023-04-11T11:31:48.729Z,98936.78
2023-04-11T11:34:56.343Z,98917.50
2023-04-11T11:38:05.447Z,98951.16
2023-04-11T11:41:10.015Z,98958.88
2023-04-11T11:44:24.825Z,98930.88
2023-04-11T11:47:29.357Z,98953.09
2023-04-11T11:50:34.945Z,98948.84
2023-04-11T11:53:38.881Z,98941.94
2023-04-11T11:56:50.556Z,98941.41
2023-04-11T11:59:56.992Z,98915.28
2023-04-11T12:03:09.223Z,98910.69
2023-04-11T12:06:14.370Z,98909.75
2023-04-11T12:09:18.375Z,98900.72
2023-04-11T12:12:22.769Z,98899.84
2023-04-11T12:15:26.925Z,98887.66
2023-04-11T12:18:33.008Z,98905.69
2023-04-11T12:21:37.820Z,98914.84
2023-04-11T12:24:42.394Z,98899.13
2023-04-11T12:27:47.887Z,98907.84
2023-04-11T12:30:55.576Z,98916.16
2023-04-11T12:34:01.440Z,98925.00
2023-04-11T12:37:07.331Z,98941.34
2023-04-11T12:40:13.319Z,98951.03
2023-04-11T12:43:17.994Z,98963.59
2023-04-11T12:46:23.072Z,98956.91
2023-04-11T12:49:29.135Z,98967.94
2023-04-11T12:52:34.218Z,98954.75
2023-04-11T12:55:40.165Z,98958.59
2023-04-11T12:58:46.791Z,98946.84
2023-04-11T13:01:51.414Z,98935.97
2023-04-11T13:04:55.660Z,98870.84
2023-04-11T13:08:00.386Z,98849.03
2023-04-11T13:11:04.918Z,98835.41
2023-04-11T13:14:09.558Z,98866.50
2023-04-11T13:17:14.223Z,98901.72
2023-04-11T13:20:20.247Z,98928.00
2023-04-11T13:23:24.846Z,98924.47
2023-04-11T13:26:29.590Z,98901.53
2023-04-11T13:29:35.511Z,98886.66
2023-04-11T13:32:40.056Z,98892.72
2023-04-11T13:35:44.798Z,98885.88
2023-04-11T13:38:52.119Z,98891.09
2023-04-11T13:41:56.775Z,98879.25
2023-04-11T13:45:00.656Z,98905.91
2023-04-11T13:48:05.662Z,98915.06
2023-04-11T13:51:10.596Z,98924.84
2023-04-11T13:54:15.023Z,98933.38
2023-04-11T13:57:19.724Z,98949.97
2023-04-11T14:00:24.677Z,98965.72
2023-04-11T14:03:35.232Z,98979.41
2023-04-11T14:06:41.253Z,98979.06
2023-04-11T14:09:45.800Z,98987.88
2023-04-11T14:12:49.728Z,98988.56
2023-04-11T14:16:07.415Z,98988.31
2023-04-11T14:19:13.828Z,98997.66
2023-04-11T14:22:18.283Z,98994.97
2023-04-11T14:25:23.347Z,98993.06
2023-04-11T14:28:28.000Z,98987.88
2023-04-11T14:31:32.749Z,98988.91
2023-04-11T14:34:37.519Z,98997.53
2023-04-11T14:37:42.283Z,99001.06
2023-04-11T14:40:46.957Z,99003.97
2023-04-11T14:43:52.073Z,98997.03
2023-04-11T14:46:56.627Z,98998.91
2023-04-11T14:50:01.817Z,99002.69
2023-04-11T14:53:07.367Z,98994.19
2023-04-11T14:56:11.952Z,98990.09
2023-04-11T14:59:16.208Z,98994.34
2023-04-11T15:02:20.985Z,98994.63
2023-04-11T15:05:25.998Z,99009.44
2023-04-11T15:08:30.555Z,99002.81
2023-04-11T15:11:35.082Z,99018.09
2023-04-11T15:14:39.938Z,99044.16
2023-04-11T15:17:48.509Z,99056.31
2023-04-11T15:20:53.422Z,99044.56
2023-04-11T15:23:58.533Z,99028.63
2023-04-11T15:27:03.076Z,99036.19
2023-04-11T15:30:09.598Z,99031.19
2023-04-11T15:33:14.300Z,98993.16
2023-04-11T15:36:19.370Z,98997.22
2023-04-11T15:39:24.597Z,98965.34
2023-04-11T15:42:29.007Z,98946.28
2023-04-11T15:45:36.137Z,98950.06
2023-04-11T15:48:40.548Z,98968.91
2023-04-11T15:51:47.373Z,98946.22
2023-04-11T15:54:51.821Z,98956.50
2023-04-11T15:57:56.347Z,98958.16
2023-04-11T16:01:03.523Z,98991.56
2023-04-11T16:04:08.143Z,98996.09
2023-04-11T16:07:12.890Z,98993.09
2023-04-11T16:10:17.573Z,98996.75
2023-04-11T16:13:21.771Z,98995.41
2023-04-11T16:16:26.217Z,98986.91
2023-04-11T16:19:31.054Z,99005.09
2023-04-11T16:22:36.600Z,99009.31
2023-04-11T16:25:41.119Z,99005.78
2023-04-11T16:28:45.487Z,98992.53
2023-04-11T16:31:50.003Z,98987.63
2023-04-11T16:34:55.809Z,98974.69
2023-04-11T16:37:59.900Z,98967.06
2023-04-11T16:41:04.353Z,98964.66
2023-04-11T16:44:18.814Z,98961.31
2023-04-11T16:47:26.869Z,98955.50
2023-04-11T16:50:31.458Z,98946.75
2023-04-11T16:53:36.726Z,98953.72
2023-04-11T16:56:41.536Z,98966.00
2023-04-11T16:59:46.804Z,98963.03
2023-04-11T17:02:51.698Z,98980.94
2023-04-11T17:05:55.880Z,98970.75
2023-04-11T17:09:00.443Z,98971.81
2023-04-11T17:12:05.729Z,98978.97
2023-04-11T17:15:10.588Z,98974.91
2023-04-11T17:18:15.869Z,98981.22
2023-04-11T17:21:20.479Z,98966.88
2023-04-11T17:24:26.138Z,98988.03
2023-04-11T17:27:31.453Z,98971.94
2023-04-11T17:30:36.170Z,98979.00
2023-04-11T17:33:40.483Z,98977.91
2023-04-11T17:36:46.783Z,98973.88
2023-04-11T17:39:51.441Z,98967.03
2023-04-11T17:42:58.396Z,98954.88
2023-04-11T17:46:02.978Z,98942.81
2023-04-11T17:49:07.526Z,98938.91
2023-04-11T17:52:12.355Z,98940.84
2023-04-11T17:55:19.015Z,98910.88
2023-04-11T17:58:23.738Z,98938.19
2023-04-11T18:01:32.951Z,98927.53
2023-04-11T18:04:36.878Z,98919.56
2023-04-11T18:07:42.701Z,98947.31
2023-04-11T18:10:47.286Z,98948.03
2023-04-11T18:13:52.082Z,98933.13
2023-04-11T18:16:56.855Z,98929.56
2023-04-11T18:20:02.582Z,98928.50
2023-04-11T18:23:06.930Z,98918.25
2023-04-11T18:26:11.699Z,98925.25
2023-04-11T18:29:16.277Z,98898.03
2023-04-11T18:32:22.297Z,98919.03
2023-04-11T18:35:28.859Z,98919.38
2023-04-11T18:38:33.300Z,98924.22
2023-04-11T18:41:37.825Z,98917.78
2023-04-11T18:44:44.454Z,98904.94
2023-04-11T18:47:49.151Z,98903.75
2023-04-11T18:51:04.397Z,98908.97
2023-04-11T18:54:09.033Z,98917.59
2023-04-11T18:57:14.762Z,98918.06
2023-04-11T19:00:19.818Z,98920.66
2023-04-11T19:03:25.526Z,98922.44
2023-04-11T19:06:29.850Z,98917.34
2023-04-11T19:09:33.761Z,98912.31
2023-04-11T19:12:38.448Z,98887.25
2023-04-11T19:15:43.345Z,98903.50
2023-04-11T19:18:47.822Z,98915.53
2023-04-11T19:21:52.591Z,98906.38
2023-04-11T19:24:57.412Z,98908.88
2023-04-11T19:28:01.936Z,98909.75
2023-04-11T19:31:05.969Z,98900.09
2023-04-11T19:34:10.203Z,98875.19
2023-04-11T19:37:17.171Z,98880.84
2023-04-11T19:40:24.244Z,98889.38
2023-04-11T19:43:28.629Z,98883.31
2023-04-11T19:46:32.616Z,98887.84
2023-04-11T19:49:36.968Z,98895.00
2023-04-11T19:52:42.735Z,98882.88
2023-04-11T19:55:51.815Z,98894.47
2023-04-11T20:02:12.148Z,98905.22
2023-04-11T20:05:20.905Z,98903.28
2023-04-11T20:08:31.387Z,98901.13
2023-04-11T20:11:37.472Z,98904.75
2023-04-11T20:14:42.003Z,98876.31
2023-04-11T20:17:47.806Z,98918.00
2023-04-11T20:20:52.395Z,98905.81
2023-04-11T20:23:56.713Z,98912.81
2023-04-11T20:27:01.048Z,98920.63
2023-04-11T20:30:08.631Z,98915.16
2023-04-11T20:33:13.065Z,98916.00
2023-04-11T20:36:17.804Z,98910.72
2023-04-11T20:39:22.314Z,98922.31
2023-04-11T20:42:26.898Z,98914.25
2023-04-11T20:45:33.727Z,98909.56
2023-04-11T20:48:38.495Z,98918.16
2023-04-11T20:51:44.586Z,98923.22
2023-04-11T20:54:49.287Z,98921.16
2023-04-11T20:57:54.285Z,98924.47
2023-04-11T21:00:58.850Z,98923.72
2023-04-11T21:04:03.844Z,98915.03
2023-04-11T21:07:08.573Z,98921.88
2023-04-11T21:10:13.908Z,98927.13
2023-04-11T21:13:18.271Z,98938.84
2023-04-11T21:16:22.973Z,98943.06
2023-04-11T21:19:27.549Z,98950.19
2023-04-11T21:22:31.853Z,98959.19
2023-04-11T21:25:38.755Z,98963.72
2023-04-11T21:28:43.339Z,98949.53
2023-04-11T21:31:47.199Z,98963.69
2023-04-11T21:34:51.439Z,98960.13
2023-04-11T21:37:55.502Z,98962.66
2023-04-11T21:40:59.798Z,98956.53
2023-04-11T21:44:04.281Z,98950.78
2023-04-11T21:47:08.739Z,98957.84
2023-04-11T21:50:13.662Z,98960.50
2023-04-11T21:53:18.295Z,98961.25
2023-04-11T21:56:22.699Z,98952.00
2023-04-11T21:59:27.078Z,98957.06
2023-04-11T22:02:31.872Z,98943.22
2023-04-11T22:05:36.640Z,98975.91
2023-04-11T22:08:41.026Z,98966.50
2023-04-11T22:11:45.882Z,98960.53
2023-04-11T22:14:53.550Z,98958.50
2023-04-11T22:17:57.880Z,98959.16
2023-04-11T22:21:03.954Z,98954.47
2023-04-11T22:24:10.236Z,98947.84
2023-04-11T22:27:14.749Z,98938.28
2023-04-11T22:30:19.192Z,98962.94
2023-04-11T22:33:23.903Z,98959.69
2023-04-11T22:36:36.155Z,98971.03
2023-04-11T22:39:41.201Z,98911.06
2023-04-11T22:42:47.733Z,98973.25
2023-04-11T22:45:54.027Z,98971.22
2023-04-11T22:49:01.533Z,98953.38
2023-04-11T22:52:06.097Z,98963.94
2023-04-11T22:55:11.957Z,98943.00
2023-04-11T22:58:16.249Z,98938.97
2023-04-11T23:01:20.793Z,98969.50
2023-04-11T23:04:25.512Z,98909.66
2023-04-11T23:07:33.942Z,98960.97
2023-04-11T23:10:39.846Z,98963.41
2023-04-11T23:13:44.099Z,98963.84
2023-04-11T23:16:48.716Z,98969.31
2023-04-11T23:19:53.121Z,98956.06
2023-04-11T23:22:59.237Z,98971.47
2023-04-11T23:26:03.682Z,98916.97
2023-04-11T23:29:08.183Z,98959.50
2023-04-11T23:32:12.081Z,98955.09
2023-04-11T23:35:18.158Z,98957.09
2023-04-11T23:38:24.252Z,98944.88
2023-04-11T23:41:31.056Z,98959.38
2023-04-11T23:44:35.988Z,98948.91
2023-04-11T23:47:40.742Z,98963.41
2023-04-11T23:50:45.234Z,98950.75
2023-04-11T23:53:49.611Z,98947.56
2023-04-11T23:56:54.088Z,98958.97
2023-04-11T23:59:59.114Z,98961.78
